KAYS/AYS METAR and TAF weather

Enter ICAO airport designator
Station Type Date Time Source
KAYS METAR 2019/08/22 09:15 UTC NOAA

KAYS 220915Z AUTO 00000KT 10SM CLR 24/21 A3005 RMK AO2 T02400211 TSNO


Station Type Date Time Source
KAYS Decoded METAR 2019/08/22 09:15 UTC NOAA

Station name not available
Aug 22, 2019 - 05:15 AM EDT / 2019.08.22 0915 UTC
Wind: Calm:0
Visibility: 10 mile(s):0
Sky conditions: clear
Temperature: 75.2 F (24.0 C)
Dew Point: 70.0 F (21.1 C)
Relative Humidity: 83%
Pressure (altimeter): 30.05 in. Hg (1017 hPa)
ob: KAYS 220915Z AUTO 00000KT 10SM CLR 24/21 A3005 RMK AO2 T02400211 TSNO
cycle: 9

Station Type Date Time Source
KAYS TAF UTC NOAA

Error!

Example: see airport list